createdAt,value
2019-03-21T00:00:31.485Z,22.33
2019-03-21T00:02:59.960Z,22.07
2019-03-21T00:05:30.789Z,22.03
2019-03-21T00:07:59.271Z,21.43
2019-03-21T00:10:33.543Z,21.23
2019-03-21T00:13:02.024Z,21.33
2019-03-21T00:15:42.272Z,22.13
2019-03-21T00:18:14.211Z,21.27
2019-03-21T00:20:42.743Z,21.70
2019-03-21T00:23:11.301Z,22.50
2019-03-21T00:25:39.759Z,22.67
2019-03-21T00:28:08.382Z,22.33
2019-03-21T00:30:36.865Z,22.43
2019-03-21T00:33:05.412Z,22.53
2019-03-21T00:35:33.948Z,22.27
2019-03-21T00:38:02.415Z,20.97
2019-03-21T00:40:39.684Z,22.40
2019-03-21T00:43:10.957Z,22.90
2019-03-21T00:45:39.535Z,23.23
2019-03-21T00:48:10.937Z,23.50
2019-03-21T00:50:40.097Z,24.00
2019-03-21T00:53:08.551Z,24.63
2019-03-21T00:55:43.220Z,24.07
2019-03-21T00:58:11.705Z,23.90
2019-03-21T01:00:43.412Z,24.30
2019-03-21T01:03:12.855Z,24.97
2019-03-21T01:05:41.655Z,24.73
2019-03-21T01:08:10.216Z,24.47
2019-03-21T01:10:38.795Z,23.90
2019-03-21T01:13:07.344Z,23.70
2019-03-21T01:15:35.839Z,25.37
2019-03-21T01:18:04.511Z,24.47
2019-03-21T01:20:33.044Z,24.40
2019-03-21T01:23:01.539Z,25.17
2019-03-21T01:25:42.007Z,25.53
2019-03-21T01:28:10.493Z,25.50
2019-03-21T01:30:38.949Z,24.10
2019-03-21T01:33:07.452Z,23.83
2019-03-21T01:35:37.013Z,23.97
2019-03-21T01:38:05.463Z,23.43
2019-03-21T01:40:36.870Z,24.20
2019-03-21T01:43:05.401Z,23.67
2019-03-21T01:45:34.000Z,23.33
2019-03-21T01:48:02.489Z,24.33
2019-03-21T01:50:37.087Z,25.20
2019-03-21T01:53:05.547Z,25.17
2019-03-21T01:55:34.032Z,23.43
2019-03-21T01:58:02.499Z,23.60
2019-03-21T02:00:41.543Z,24.53
2019-03-21T02:03:10.008Z,24.93
2019-03-21T02:05:38.469Z,24.40
2019-03-21T02:08:06.971Z,23.57
2019-03-21T02:10:35.968Z,23.13
2019-03-21T02:13:04.573Z,23.20
2019-03-21T02:15:33.136Z,23.30
2019-03-21T02:18:01.808Z,22.77
2019-03-21T02:20:30.263Z,21.63
2019-03-21T02:22:58.788Z,22.50
2019-03-21T02:25:41.455Z,22.40
2019-03-21T02:28:10.116Z,21.43
2019-03-21T02:30:40.751Z,22.37
2019-03-21T02:33:12.412Z,22.10
2019-03-21T02:35:40.979Z,22.40
2019-03-21T02:38:09.529Z,21.73
2019-03-21T02:40:38.077Z,21.43
2019-03-21T02:43:06.645Z,20.70
2019-03-21T02:45:35.172Z,21.57
2019-03-21T02:48:03.643Z,20.50
2019-03-21T02:50:40.800Z,21.47
2019-03-21T02:53:09.336Z,20.83
2019-03-21T02:55:37.799Z,21.10
2019-03-21T02:58:06.369Z,20.60
2019-03-21T03:00:39.926Z,20.13
2019-03-21T03:03:09.125Z,19.70
2019-03-21T03:05:38.656Z,20.50
2019-03-21T03:08:08.803Z,20.50
2019-03-21T03:10:46.126Z,20.30
2019-03-21T03:13:14.655Z,20.97
2019-03-21T03:15:43.669Z,20.20
2019-03-21T03:18:14.978Z,21.10
2019-03-21T03:20:43.533Z,20.63
2019-03-21T03:23:12.075Z,20.70
2019-03-21T03:25:40.703Z,20.00
2019-03-21T03:28:18.019Z,19.60
2019-03-21T03:30:46.705Z,20.57
2019-03-21T03:33:15.233Z,20.20
2019-03-21T03:35:43.779Z,20.43
2019-03-21T03:38:12.365Z,21.10
2019-03-21T03:40:46.793Z,20.10
2019-03-21T03:43:15.377Z,19.87
2019-03-21T03:45:44.598Z,19.67
2019-03-21T03:48:13.442Z,19.10
2019-03-21T03:50:42.097Z,19.47
2019-03-21T03:53:10.617Z,19.83
2019-03-21T03:55:39.145Z,19.20
2019-03-21T03:58:16.735Z,21.30
2019-03-21T04:00:45.326Z,19.20
2019-03-21T04:03:15.404Z,20.80
2019-03-21T04:05:43.914Z,20.13
2019-03-21T04:08:12.524Z,20.07
2019-03-21T04:10:46.573Z,20.53
2019-03-21T04:13:15.908Z,20.57
2019-03-21T04:15:52.314Z,20.27
2019-03-21T04:18:14.795Z,20.23
2019-03-21T04:21:01.634Z,19.27
2019-03-21T04:23:30.114Z,19.77
2019-03-21T04:26:24.274Z,19.87
2019-03-21T04:28:52.794Z,18.47
2019-03-21T04:31:21.256Z,18.87
2019-03-21T04:33:52.676Z,18.00
2019-03-21T04:36:21.514Z,19.10
2019-03-21T04:38:49.977Z,19.13
2019-03-21T04:41:18.475Z,19.43
2019-03-21T04:44:06.400Z,18.50
2019-03-21T04:46:34.955Z,18.50
2019-03-21T04:49:03.486Z,18.03
2019-03-21T04:51:31.972Z,18.70
2019-03-21T04:54:00.581Z,18.80
2019-03-21T04:56:29.112Z,19.90
2019-03-21T04:58:57.606Z,18.07
2019-03-21T05:01:26.136Z,18.27
2019-03-21T05:03:54.598Z,17.90
2019-03-21T05:06:23.157Z,17.97
2019-03-21T05:08:51.643Z,17.20
2019-03-21T05:11:20.189Z,18.67
2019-03-21T05:13:48.643Z,18.13
2019-03-21T05:16:17.128Z,18.30
2019-03-21T05:18:57.584Z,17.80
2019-03-21T05:21:26.228Z,17.80
2019-03-21T05:23:54.693Z,17.77
2019-03-21T05:26:23.299Z,17.53
2019-03-21T05:28:51.775Z,17.80
2019-03-21T05:31:26.013Z,18.63
2019-03-21T05:33:54.502Z,17.97
2019-03-21T05:36:22.988Z,16.47
2019-03-21T05:38:51.444Z,16.77
2019-03-21T05:41:19.995Z,17.53
2019-03-21T05:44:03.565Z,16.77
2019-03-21T05:46:32.894Z,16.30
2019-03-21T05:49:01.358Z,16.80
2019-03-21T05:51:29.860Z,16.90
2019-03-21T05:53:58.487Z,17.20
2019-03-21T05:56:27.648Z,16.32
2019-03-21T05:58:56.199Z,16.30
2019-03-21T06:01:24.690Z,17.53
2019-03-21T06:03:53.411Z,16.73
2019-03-21T06:06:27.759Z,17.43
2019-03-21T06:08:56.389Z,17.93
2019-03-21T06:11:24.864Z,17.57
2019-03-21T06:13:53.447Z,17.83
2019-03-21T06:16:22.050Z,18.97
2019-03-21T06:18:56.281Z,19.03
2019-03-21T06:21:36.573Z,17.77
2019-03-21T06:24:10.971Z,18.83
2019-03-21T06:26:50.355Z,19.10
2019-03-21T06:29:18.820Z,18.13
2019-03-21T06:31:47.516Z,19.67
2019-03-21T06:34:16.016Z,20.67
2019-03-21T06:36:44.587Z,22.43
2019-03-21T06:39:13.277Z,23.13
2019-03-21T06:41:41.981Z,22.77
2019-03-21T06:44:10.529Z,22.57
2019-03-21T06:46:48.753Z,24.27
2019-03-21T06:49:09.660Z,24.37
2019-03-21T06:51:38.137Z,26.10
2019-03-21T06:54:06.632Z,35.10
2019-03-21T06:56:35.114Z,27.57
2019-03-21T06:59:03.635Z,27.23
2019-03-21T07:01:32.136Z,27.83
2019-03-21T07:04:06.904Z,28.00
2019-03-21T07:06:30.784Z,28.60
2019-03-21T07:08:59.332Z,28.23
2019-03-21T07:11:28.140Z,28.92
2019-03-21T07:13:56.602Z,28.53
2019-03-21T07:16:25.245Z,29.83
2019-03-21T07:18:53.709Z,29.33
2019-03-21T07:21:22.205Z,29.27
2019-03-21T07:23:50.693Z,31.17
2019-03-21T07:26:19.164Z,30.10
2019-03-21T07:28:47.692Z,29.60
2019-03-21T07:31:16.282Z,28.07
2019-03-21T07:33:44.799Z,30.37
2019-03-21T07:36:13.273Z,30.07
2019-03-21T07:38:41.773Z,31.57
2019-03-21T07:41:10.261Z,31.50
2019-03-21T07:43:38.721Z,31.00
2019-03-21T07:46:07.227Z,28.50
2019-03-21T07:48:35.764Z,31.70
2019-03-21T07:51:04.294Z,32.00
2019-03-21T07:53:32.893Z,31.07
2019-03-21T07:56:01.431Z,27.97
2019-03-21T07:58:29.902Z,28.10
2019-03-21T08:00:58.444Z,29.17
2019-03-21T08:03:26.907Z,32.53
2019-03-21T08:05:55.443Z,29.03
2019-03-21T08:08:24.019Z,26.53
2019-03-21T08:10:52.534Z,32.83
2019-03-21T08:13:21.000Z,32.67
2019-03-21T08:15:49.491Z,31.40
2019-03-21T08:18:17.952Z,31.70
2019-03-21T08:20:56.044Z,33.33
2019-03-21T08:23:18.225Z,33.60
2019-03-21T08:25:46.771Z,33.30
2019-03-21T08:28:34.697Z,36.87
2019-03-21T08:31:06.248Z,38.80
2019-03-21T08:33:34.716Z,33.33
2019-03-21T08:36:22.956Z,34.80
2019-03-21T08:38:51.440Z,32.20
2019-03-21T08:41:19.940Z,34.30
2019-03-21T08:43:48.572Z,31.20
2019-03-21T08:46:17.037Z,32.33
2019-03-21T08:48:45.498Z,33.97
2019-03-21T08:51:14.353Z,32.87
2019-03-21T08:53:42.911Z,30.60
2019-03-21T08:56:11.386Z,31.57
2019-03-21T08:58:40.011Z,31.03
2019-03-21T09:01:08.567Z,30.07
2019-03-21T09:03:37.039Z,33.50
2019-03-21T09:06:05.593Z,30.67
2019-03-21T09:08:34.198Z,33.73
2019-03-21T09:11:02.667Z,33.37
2019-03-21T09:13:31.152Z,26.20
2019-03-21T09:15:59.628Z,30.23
2019-03-21T09:18:28.093Z,27.20
2019-03-21T09:20:56.588Z,23.57
2019-03-21T09:23:25.054Z,20.93
2019-03-21T09:25:53.547Z,18.30
2019-03-21T09:28:22.045Z,14.70
2019-03-21T09:30:50.824Z,19.67
2019-03-21T09:33:19.564Z,17.53
2019-03-21T09:35:48.099Z,21.57
2019-03-21T09:38:16.562Z,21.63
2019-03-21T09:40:45.105Z,25.23
2019-03-21T09:43:13.657Z,23.83
2019-03-21T09:45:42.202Z,25.87
2019-03-21T09:48:10.792Z,21.10
2019-03-21T09:50:39.327Z,26.50
2019-03-21T09:53:07.871Z,27.53
2019-03-21T09:55:36.505Z,27.00
2019-03-21T09:58:05.122Z,26.97
2019-03-21T10:00:36.097Z,26.83
2019-03-21T10:03:05.836Z,21.87
2019-03-21T10:05:34.424Z,25.83
2019-03-21T10:08:03.025Z,23.03
2019-03-21T10:10:33.903Z,28.10
2019-03-21T10:13:02.579Z,26.63
2019-03-21T10:15:31.165Z,19.33
2019-03-21T10:18:01.236Z,22.77
2019-03-21T10:20:29.833Z,25.27
2019-03-21T10:22:58.296Z,27.27
2019-03-21T10:25:27.036Z,23.53
2019-03-21T10:27:55.967Z,23.50
2019-03-21T10:30:33.352Z,23.63
2019-03-21T10:33:02.040Z,26.70
2019-03-21T10:35:32.553Z,27.10
2019-03-21T10:38:00.764Z,26.03
2019-03-21T10:40:29.255Z,25.60
2019-03-21T10:42:57.715Z,24.67
2019-03-21T10:45:26.284Z,26.93
2019-03-21T10:47:54.800Z,25.73
2019-03-21T10:50:28.838Z,25.43
2019-03-21T10:52:57.848Z,22.50
2019-03-21T10:55:26.420Z,24.30
2019-03-21T10:57:54.880Z,26.47
2019-03-21T11:00:23.552Z,26.63
2019-03-21T11:02:52.116Z,26.27
2019-03-21T11:05:23.108Z,25.13
2019-03-21T11:07:50.843Z,13.27
2019-03-21T11:10:19.319Z,16.50
2019-03-21T11:12:47.859Z,18.93
2019-03-21T11:15:16.480Z,22.60
2019-03-21T11:17:45.068Z,26.67
2019-03-21T11:20:16.604Z,23.80
2019-03-21T11:22:45.068Z,24.43
2019-03-21T11:25:13.604Z,27.43
2019-03-21T11:27:42.151Z,24.17
2019-03-21T11:30:16.302Z,23.70
2019-03-21T11:32:42.441Z,15.70
2019-03-21T11:35:10.988Z,23.37
2019-03-21T11:37:39.453Z,15.63
2019-03-21T11:40:08.087Z,23.43
2019-03-21T11:42:36.638Z,22.23
2019-03-21T11:45:07.133Z,19.87
2019-03-21T11:47:41.642Z,24.83
2019-03-21T11:50:06.528Z,15.87
2019-03-21T11:52:34.995Z,27.43
2019-03-21T11:55:04.808Z,25.83
2019-03-21T11:57:33.291Z,28.70
2019-03-21T12:00:01.776Z,27.23
2019-03-21T12:02:30.313Z,28.00
2019-03-21T12:04:58.813Z,19.43
2019-03-21T12:07:27.360Z,25.73
2019-03-21T12:09:55.881Z,26.57
2019-03-21T12:12:24.448Z,26.97
2019-03-21T12:14:52.911Z,28.00
2019-03-21T12:17:21.447Z,24.30
2019-03-21T12:20:13.572Z,18.23
2019-03-21T12:22:42.105Z,27.97
2019-03-21T12:25:11.008Z,28.50
2019-03-21T12:27:39.506Z,29.30
2019-03-21T12:30:13.368Z,28.20
2019-03-21T12:32:42.847Z,29.97
2019-03-21T12:35:11.478Z,26.23
2019-03-21T12:37:39.971Z,30.07
2019-03-21T12:40:09.232Z,21.80
2019-03-21T12:42:37.719Z,17.97
2019-03-21T12:45:08.722Z,29.27
2019-03-21T12:47:37.183Z,29.13
2019-03-21T12:50:09.643Z,27.63
2019-03-21T12:52:41.631Z,27.20
2019-03-21T12:55:08.441Z,25.07
2019-03-21T12:57:36.929Z,30.27
2019-03-21T13:00:11.239Z,29.97
2019-03-21T13:02:39.740Z,27.90
2019-03-21T13:05:09.268Z,27.93
2019-03-21T13:07:37.747Z,21.90
2019-03-21T13:10:09.186Z,17.63
2019-03-21T13:12:37.743Z,18.27
2019-03-21T13:15:07.041Z,22.10
2019-03-21T13:17:35.571Z,21.57
2019-03-21T13:20:06.795Z,28.87
2019-03-21T13:22:54.677Z,27.83
2019-03-21T13:25:23.295Z,25.87
2019-03-21T13:27:51.757Z,26.90
2019-03-21T13:30:20.318Z,29.20
2019-03-21T13:32:48.824Z,16.07
2019-03-21T13:35:17.308Z,14.93
2019-03-21T13:37:45.847Z,26.63
2019-03-21T13:40:14.482Z,26.93
2019-03-21T13:42:42.940Z,27.00
2019-03-21T13:45:11.688Z,15.40
2019-03-21T13:47:40.191Z,13.37
2019-03-21T13:50:09.644Z,23.27
2019-03-21T13:52:38.255Z,26.30
2019-03-21T13:55:11.018Z,27.87
2019-03-21T13:57:39.540Z,26.57
2019-03-21T14:00:17.024Z,20.77
2019-03-21T14:02:45.497Z,24.60
2019-03-21T14:05:14.228Z,17.10
2019-03-21T14:07:42.827Z,23.93
2019-03-21T14:10:12.078Z,24.27
2019-03-21T14:12:40.649Z,27.50
2019-03-21T14:15:12.431Z,24.57
2019-03-21T14:17:40.908Z,25.97
2019-03-21T14:20:10.919Z,14.50
2019-03-21T14:22:39.421Z,14.03
2019-03-21T14:25:08.420Z,25.73
2019-03-21T14:27:36.972Z,26.73
2019-03-21T14:30:08.668Z,27.70
2019-03-21T14:32:37.299Z,18.23
2019-03-21T14:35:08.706Z,26.00
2019-03-21T14:37:37.415Z,27.03
2019-03-21T14:40:08.956Z,28.07
2019-03-21T14:42:37.510Z,28.13
2019-03-21T14:45:07.836Z,25.93
2019-03-21T14:47:36.676Z,28.60
2019-03-21T14:50:24.840Z,28.43
2019-03-21T14:52:53.370Z,26.10
2019-03-21T14:55:21.846Z,29.43
2019-03-21T14:57:50.540Z,27.63
2019-03-21T15:00:20.212Z,22.00
2019-03-21T15:02:48.683Z,23.47
2019-03-21T15:05:17.253Z,20.53
2019-03-21T15:07:45.891Z,23.13
2019-03-21T15:10:18.360Z,33.53
2019-03-21T15:12:46.872Z,26.73
2019-03-21T15:15:16.448Z,32.33
2019-03-21T15:17:45.047Z,21.17
2019-03-21T15:20:15.863Z,30.63
2019-03-21T15:22:44.471Z,32.43
2019-03-21T15:25:13.775Z,32.50
2019-03-21T15:27:42.272Z,32.87
2019-03-21T15:30:16.740Z,26.30
2019-03-21T15:32:45.491Z,33.87
2019-03-21T15:35:16.032Z,36.20
2019-03-21T15:37:44.499Z,37.57
2019-03-21T15:40:14.516Z,33.43
2019-03-21T15:42:43.323Z,39.07
2019-03-21T15:45:22.064Z,36.67
2019-03-21T15:47:45.673Z,22.07
2019-03-21T15:50:28.133Z,40.07
2019-03-21T15:52:57.328Z,32.57
2019-03-21T15:55:25.876Z,36.67
2019-03-21T15:57:54.832Z,24.23
2019-03-21T16:00:38.294Z,39.83
2019-03-21T16:03:08.435Z,30.23
2019-03-21T16:05:37.257Z,44.77
2019-03-21T16:08:08.698Z,42.83
2019-03-21T16:10:36.346Z,46.63
2019-03-21T16:13:05.214Z,36.57
2019-03-21T16:15:33.846Z,43.37
2019-03-21T16:18:02.406Z,32.53
2019-03-21T16:20:31.748Z,33.78
2019-03-21T16:23:00.213Z,39.53
2019-03-21T16:25:28.737Z,32.30
2019-03-21T16:27:57.278Z,44.57
2019-03-21T16:30:25.869Z,44.47
2019-03-21T16:32:54.356Z,45.73
2019-03-21T16:35:22.826Z,29.07
2019-03-21T16:37:51.301Z,33.50
2019-03-21T16:40:19.909Z,43.17
2019-03-21T16:42:48.450Z,31.03
2019-03-21T16:45:17.614Z,41.67
2019-03-21T16:47:46.210Z,44.67
2019-03-21T16:50:15.632Z,46.47
2019-03-21T16:52:44.120Z,40.97
2019-03-21T16:55:13.953Z,46.83
2019-03-21T16:57:42.775Z,43.57
2019-03-21T17:00:17.725Z,39.47
2019-03-21T17:02:47.518Z,30.27
2019-03-21T17:05:16.053Z,42.67
2019-03-21T17:07:44.685Z,38.13
2019-03-21T17:10:14.656Z,40.47
2019-03-21T17:12:43.170Z,30.57
2019-03-21T17:15:13.301Z,39.33
2019-03-21T17:17:42.109Z,40.93
2019-03-21T17:20:12.153Z,39.20
2019-03-21T17:22:40.734Z,39.83
2019-03-21T17:25:09.799Z,39.83
2019-03-21T17:27:38.251Z,25.93
2019-03-21T17:30:12.436Z,40.03
2019-03-21T17:32:40.963Z,39.73
2019-03-21T17:35:09.696Z,33.90
2019-03-21T17:37:57.675Z,40.70
2019-03-21T17:40:26.169Z,39.17
2019-03-21T17:42:54.700Z,35.80
2019-03-21T17:45:23.301Z,30.57
2019-03-21T17:47:51.787Z,34.27
2019-03-21T17:50:20.322Z,40.77
2019-03-21T17:52:48.804Z,39.13
2019-03-21T17:55:17.639Z,35.93
2019-03-21T17:57:47.714Z,35.17
2019-03-21T18:00:23.786Z,36.53
2019-03-21T18:02:52.863Z,30.13
2019-03-21T18:05:21.341Z,35.60
2019-03-21T18:07:49.839Z,33.60
2019-03-21T18:10:26.900Z,32.00
2019-03-21T18:12:55.573Z,32.40
2019-03-21T18:15:24.752Z,33.67
2019-03-21T18:17:53.295Z,30.40
2019-03-21T18:20:21.977Z,31.67
2019-03-21T18:22:50.565Z,29.03
2019-03-21T18:25:19.115Z,28.63
2019-03-21T18:27:47.669Z,26.10
2019-03-21T18:30:16.404Z,24.37
2019-03-21T18:32:44.888Z,25.63
2019-03-21T18:35:14.356Z,21.03
2019-03-21T18:37:42.900Z,17.40
2019-03-21T18:40:12.539Z,18.23
2019-03-21T18:42:41.037Z,19.27
2019-03-21T18:45:12.621Z,22.63
2019-03-21T18:47:41.112Z,16.77
2019-03-21T18:50:12.622Z,23.77
2019-03-21T18:52:41.156Z,25.20
2019-03-21T18:55:09.808Z,23.27
2019-03-21T19:01:04.126Z,26.00
2019-03-21T19:03:34.344Z,25.83
2019-03-21T19:06:02.888Z,20.03
2019-03-21T19:08:35.287Z,16.77
2019-03-21T19:11:03.777Z,24.63
2019-03-21T19:13:32.244Z,27.27
2019-03-21T19:16:02.386Z,22.83
2019-03-21T19:18:31.017Z,24.87
2019-03-21T19:20:59.480Z,18.70
2019-03-21T19:23:27.981Z,28.43
2019-03-21T19:25:56.531Z,26.57
2019-03-21T19:28:24.995Z,23.93
2019-03-21T19:30:53.473Z,28.73
2019-03-21T19:33:22.105Z,28.70
2019-03-21T19:35:50.572Z,25.47
2019-03-21T19:38:19.026Z,26.83
2019-03-21T19:40:47.592Z,28.20
2019-03-21T19:43:35.416Z,30.93
2019-03-21T19:46:04.433Z,28.37
2019-03-21T19:48:32.900Z,32.87
2019-03-21T19:51:01.382Z,29.43
2019-03-21T19:53:29.887Z,33.03
2019-03-21T19:56:08.051Z,33.47
2019-03-21T19:58:28.611Z,29.70
2019-03-21T20:00:57.200Z,31.77
2019-03-21T20:03:25.681Z,32.33
2019-03-21T20:06:00.082Z,30.90
2019-03-21T20:08:24.381Z,35.17
2019-03-21T20:10:52.850Z,32.93
2019-03-21T20:13:21.336Z,35.37
2019-03-21T20:15:49.906Z,32.93
2019-03-21T20:18:18.381Z,30.97
2019-03-21T20:20:46.867Z,32.23
2019-03-21T20:23:15.386Z,33.30
2019-03-21T20:25:43.870Z,33.33
2019-03-21T20:28:12.336Z,32.37
2019-03-21T20:30:40.824Z,25.20
2019-03-21T20:33:09.296Z,34.20
2019-03-21T20:35:37.764Z,34.60
2019-03-21T20:38:06.323Z,32.33
2019-03-21T20:40:34.789Z,34.50
2019-03-21T20:43:03.265Z,31.93
2019-03-21T20:45:31.753Z,33.80
2019-03-21T20:48:00.219Z,32.87
2019-03-21T20:50:28.701Z,35.57
2019-03-21T20:52:57.235Z,37.03
2019-03-21T20:55:25.740Z,35.23
2019-03-21T20:57:54.271Z,33.37
2019-03-21T21:00:24.497Z,34.40
2019-03-21T21:02:54.628Z,36.50
2019-03-21T21:05:23.466Z,36.70
2019-03-21T21:07:52.342Z,35.97
2019-03-21T21:10:20.872Z,34.53
2019-03-21T21:12:54.195Z,36.27
2019-03-21T21:15:22.684Z,37.50
2019-03-21T21:17:51.221Z,35.97
2019-03-21T21:20:19.752Z,34.10
2019-03-21T21:22:48.263Z,35.70
2019-03-21T21:25:16.815Z,34.47
2019-03-21T21:27:49.878Z,34.63
2019-03-21T21:30:22.364Z,33.37
2019-03-21T21:32:50.989Z,36.17
2019-03-21T21:35:19.461Z,35.13
2019-03-21T21:37:47.983Z,35.63
2019-03-21T21:40:17.797Z,36.80
2019-03-21T21:42:46.811Z,34.93
2019-03-21T21:45:17.724Z,34.13
2019-03-21T21:47:46.347Z,35.90
2019-03-21T21:50:19.070Z,34.70
2019-03-21T21:52:47.602Z,35.37
2019-03-21T21:55:16.511Z,36.90
2019-03-21T21:57:45.015Z,36.00
2019-03-21T22:00:17.544Z,35.60
2019-03-21T22:02:46.181Z,35.57
2019-03-21T22:05:14.924Z,36.67
2019-03-21T22:07:43.464Z,34.40
2019-03-21T22:10:12.585Z,34.90
2019-03-21T22:12:41.516Z,36.50
2019-03-21T22:15:12.315Z,36.07
2019-03-21T22:17:42.537Z,36.00
2019-03-21T22:20:16.963Z,37.43
2019-03-21T22:22:45.733Z,36.73
2019-03-21T22:25:14.716Z,35.63
2019-03-21T22:27:45.174Z,37.07
2019-03-21T22:30:18.995Z,37.53
2019-03-21T22:32:48.042Z,36.53
2019-03-21T22:35:16.759Z,37.50
2019-03-21T22:37:45.221Z,39.10
2019-03-21T22:40:16.109Z,35.43
2019-03-21T22:42:44.698Z,27.20
2019-03-21T22:45:15.482Z,40.70
2019-03-21T22:47:43.966Z,40.43
2019-03-21T22:50:16.463Z,39.43
2019-03-21T22:52:45.668Z,36.50
2019-03-21T22:55:15.375Z,38.97
2019-03-21T22:57:44.144Z,38.70
2019-03-21T23:00:15.443Z,38.57
2019-03-21T23:02:44.007Z,34.07
2019-03-21T23:05:13.057Z,37.90
2019-03-21T23:07:41.575Z,29.53
2019-03-21T23:10:12.088Z,36.53
2019-03-21T23:12:41.123Z,34.43
2019-03-21T23:15:11.329Z,39.93
2019-03-21T23:17:39.859Z,42.17
2019-03-21T23:20:14.546Z,41.07
2019-03-21T23:22:42.998Z,40.83
2019-03-21T23:25:12.602Z,37.37
2019-03-21T23:27:41.124Z,40.67
2019-03-21T23:30:19.451Z,34.83
2019-03-21T23:32:47.936Z,42.33
2019-03-21T23:35:16.512Z,41.13
2019-03-21T23:37:45.181Z,40.80
2019-03-21T23:40:15.382Z,34.23
2019-03-21T23:42:44.195Z,40.63
2019-03-21T23:45:13.978Z,40.07
2019-03-21T23:47:42.439Z,39.87
2019-03-21T23:50:15.877Z,40.00
2019-03-21T23:52:44.588Z,40.47
2019-03-21T23:55:13.581Z,41.93
2019-03-21T23:57:42.051Z,41.90
